createdAt,value
2023-03-12T01:36:15.849Z,419.00
2023-03-12T01:37:15.823Z,419.00
2023-03-12T01:38:15.847Z,418.00
2023-03-12T01:39:15.804Z,419.00
2023-03-12T01:40:15.764Z,417.00
2023-03-12T01:41:15.759Z,414.00
2023-03-12T01:42:15.717Z,410.00
2023-03-12T01:43:15.708Z,412.00
2023-03-12T01:44:15.700Z,414.00
2023-03-12T01:45:15.669Z,416.00
2023-03-12T01:46:15.777Z,417.00
2023-03-12T01:47:15.623Z,418.00
2023-03-12T01:48:15.605Z,416.00
2023-03-12T01:49:15.602Z,418.00
2023-03-12T01:50:15.592Z,418.00
2023-03-12T01:51:15.564Z,417.00
2023-03-12T01:52:15.540Z,414.00
2023-03-12T01:53:15.531Z,415.00
2023-03-12T01:54:15.519Z,416.00
2023-03-12T01:55:15.481Z,416.00
2023-03-12T01:56:15.461Z,416.00
2023-03-12T01:57:15.468Z,415.00
2023-03-12T01:58:15.432Z,416.00
2023-03-12T01:59:15.431Z,417.00
2023-03-12T02:00:15.404Z,416.00
2023-03-12T02:01:15.457Z,416.00
2023-03-12T02:02:15.380Z,416.00
2023-03-12T02:03:15.358Z,417.00
2023-03-12T02:04:15.403Z,416.00
2023-03-12T02:05:15.356Z,418.00
2023-03-12T02:06:15.302Z,417.00
2023-03-12T02:07:15.289Z,418.00
2023-03-12T02:08:15.270Z,418.00
2023-03-12T02:09:15.257Z,416.00
2023-03-12T02:10:15.238Z,418.00
2023-03-12T02:11:15.233Z,421.00
2023-03-12T02:12:15.205Z,418.00
2023-03-12T02:13:15.188Z,417.00
2023-03-12T02:14:15.171Z,417.00
2023-03-12T02:15:15.177Z,416.00
2023-03-12T02:16:15.136Z,416.00
2023-03-12T02:17:15.117Z,417.00
2023-03-12T02:18:15.130Z,418.00
2023-03-12T02:19:15.103Z,415.00
2023-03-12T02:20:15.088Z,417.00
2023-03-12T02:21:15.068Z,417.00
2023-03-12T02:22:15.044Z,416.00
2023-03-12T02:23:15.043Z,415.00
2023-03-12T02:24:15.007Z,417.00
2023-03-12T02:25:14.990Z,417.00
2023-03-12T02:26:14.985Z,419.00
2023-03-12T02:27:14.960Z,418.00
2023-03-12T02:28:14.945Z,418.00
2023-03-12T02:29:14.937Z,421.00
2023-03-12T02:30:14.925Z,419.00
2023-03-12T02:31:14.964Z,417.00
2023-03-12T02:32:14.935Z,416.00
2023-03-12T02:33:14.878Z,418.00
2023-03-12T02:34:14.882Z,419.00
2023-03-12T02:35:14.849Z,419.00
2023-03-12T02:36:14.872Z,420.00
2023-03-12T02:37:14.842Z,420.00
2023-03-12T02:38:14.794Z,420.00
2023-03-12T02:39:14.776Z,422.00
2023-03-12T02:40:14.749Z,422.00
2023-03-12T02:41:14.740Z,422.00
2023-03-12T02:42:14.735Z,422.00
2023-03-12T02:43:14.700Z,422.00
2023-03-12T02:44:14.693Z,420.00
2023-03-12T02:45:14.669Z,418.00
2023-03-12T02:46:14.678Z,419.00
2023-03-12T02:47:14.646Z,417.00
2023-03-12T02:48:14.653Z,417.00
2023-03-12T02:49:14.648Z,419.00
2023-03-12T02:50:14.646Z,415.00
2023-03-12T02:51:14.659Z,413.00
2023-03-12T02:52:14.661Z,413.00
2023-03-12T02:53:14.660Z,412.00
2023-03-12T02:54:14.679Z,414.00
2023-03-12T02:55:14.672Z,415.00
2023-03-12T02:56:14.681Z,416.00
2023-03-12T02:57:14.688Z,416.00
2023-03-12T02:58:14.687Z,418.00
2023-03-12T02:59:14.725Z,419.00
2023-03-12T03:00:14.698Z,420.00
2023-03-12T03:01:14.733Z,420.00
2023-03-12T03:02:14.689Z,420.00
2023-03-12T03:03:14.690Z,419.00
2023-03-12T03:04:14.712Z,419.00
2023-03-12T03:05:14.681Z,420.00
2023-03-12T03:06:14.665Z,419.00
2023-03-12T03:07:14.674Z,419.00
2023-03-12T03:08:14.654Z,420.00
2023-03-12T03:09:14.652Z,423.00
2023-03-12T03:10:14.646Z,419.00
2023-03-12T03:11:14.639Z,419.00
2023-03-12T03:12:14.644Z,419.00
2023-03-12T03:13:14.634Z,419.00
2023-03-12T03:14:14.634Z,422.00
2023-03-12T03:15:14.610Z,418.00
2023-03-12T03:16:14.651Z,420.00
2023-03-12T03:17:14.581Z,418.00
2023-03-12T03:18:14.603Z,420.00
2023-03-12T03:19:14.559Z,420.00
2023-03-12T03:20:14.555Z,416.00
2023-03-12T03:21:14.545Z,417.00
2023-03-12T03:22:14.539Z,417.00
2023-03-12T03:23:14.520Z,418.00
2023-03-12T03:24:14.526Z,415.00
2023-03-12T03:25:14.518Z,413.00
2023-03-12T03:26:14.490Z,412.00
2023-03-12T03:27:14.505Z,411.00
2023-03-12T03:28:14.475Z,410.00
2023-03-12T03:29:14.484Z,408.00
2023-03-12T03:30:14.492Z,410.00
2023-03-12T03:31:14.521Z,410.00
2023-03-12T03:32:14.504Z,413.00
2023-03-12T03:33:14.456Z,409.00
2023-03-12T03:34:14.454Z,413.00
2023-03-12T03:35:14.457Z,415.00
2023-03-12T03:36:14.450Z,416.00
2023-03-12T03:37:14.454Z,416.00
2023-03-12T03:38:14.463Z,416.00
2023-03-12T03:39:14.451Z,417.00
2023-03-12T03:40:14.443Z,418.00
2023-03-12T03:41:14.433Z,419.00
2023-03-12T03:42:14.426Z,420.00
2023-03-12T03:43:14.429Z,420.00
2023-03-12T03:44:14.435Z,420.00
2023-03-12T03:45:14.450Z,421.00
2023-03-12T03:46:14.469Z,423.00
2023-03-12T03:47:14.427Z,425.00
2023-03-12T03:48:14.424Z,423.00
2023-03-12T03:49:14.415Z,422.00
2023-03-12T03:50:14.431Z,423.00
2023-03-12T03:51:14.429Z,427.00
2023-03-12T03:52:14.419Z,422.00
2023-03-12T03:53:14.408Z,425.00
2023-03-12T03:54:14.413Z,423.00
2023-03-12T03:55:14.403Z,421.00
2023-03-12T03:56:14.421Z,423.00
2023-03-12T03:57:14.391Z,422.00
2023-03-12T03:58:14.392Z,421.00
2023-03-12T03:59:14.402Z,420.00
2023-03-12T04:00:14.398Z,420.00
2023-03-12T04:01:14.377Z,421.00
2023-03-12T04:02:14.378Z,418.00
2023-03-12T04:03:14.384Z,418.00
2023-03-12T04:04:14.366Z,416.00
2023-03-12T04:05:14.474Z,416.00
2023-03-12T04:06:14.368Z,414.00
2023-03-12T04:07:14.374Z,413.00
2023-03-12T04:08:14.386Z,412.00
2023-03-12T04:09:14.371Z,416.00
2023-03-12T04:10:14.379Z,419.00
2023-03-12T04:11:14.377Z,418.00
2023-03-12T04:12:14.371Z,418.00
2023-03-12T04:13:14.384Z,417.00
2023-03-12T04:14:14.376Z,419.00
2023-03-12T04:15:14.385Z,417.00
2023-03-12T04:16:14.428Z,418.00
2023-03-12T04:17:14.409Z,421.00
2023-03-12T04:18:14.581Z,420.00
2023-03-12T04:19:14.388Z,418.00
2023-03-12T04:20:14.391Z,420.00
2023-03-12T04:21:14.406Z,422.00
2023-03-12T04:22:14.402Z,419.00
2023-03-12T04:23:14.420Z,415.00
2023-03-12T04:24:14.421Z,419.00
2023-03-12T04:25:14.405Z,419.00
2023-03-12T04:26:14.409Z,420.00
2023-03-12T04:27:14.418Z,420.00
2023-03-12T04:28:14.411Z,423.00
2023-03-12T04:29:14.415Z,423.00
2023-03-12T04:30:14.443Z,425.00
2023-03-12T04:31:14.444Z,424.00
2023-03-12T04:32:14.439Z,423.00
2023-03-12T04:33:14.419Z,422.00
2023-03-12T04:34:14.687Z,420.00
2023-03-12T04:35:14.432Z,418.00
2023-03-12T04:36:14.422Z,418.00
2023-03-12T04:37:14.430Z,416.00
2023-03-12T04:38:14.422Z,417.00
2023-03-12T04:39:14.408Z,416.00
2023-03-12T04:40:14.396Z,414.00
2023-03-12T04:41:14.399Z,415.00
2023-03-12T04:42:14.399Z,415.00
2023-03-12T04:43:14.403Z,414.00
2023-03-12T04:44:14.413Z,414.00
2023-03-12T04:45:14.394Z,413.00
2023-03-12T04:46:14.435Z,415.00
2023-03-12T04:47:14.397Z,417.00
2023-03-12T04:48:14.383Z,414.00
2023-03-12T04:49:14.413Z,419.00
2023-03-12T04:50:14.385Z,420.00
2023-03-12T04:51:14.392Z,418.00
2023-03-12T04:52:14.382Z,418.00
2023-03-12T04:53:14.406Z,414.00
2023-03-12T04:54:14.388Z,414.00
2023-03-12T04:55:14.381Z,413.00
2023-03-12T04:56:14.379Z,414.00
2023-03-12T04:57:14.378Z,414.00
2023-03-12T04:58:14.376Z,414.00
2023-03-12T04:59:14.374Z,416.00
2023-03-12T05:00:14.379Z,415.00
2023-03-12T05:01:14.442Z,414.00
2023-03-12T05:02:14.369Z,415.00
2023-03-12T05:03:14.413Z,415.00
2023-03-12T05:04:14.538Z,418.00
2023-03-12T05:05:14.410Z,420.00
2023-03-12T05:06:14.381Z,421.00
2023-03-12T05:07:14.367Z,421.00
2023-03-12T05:08:14.394Z,423.00
2023-03-12T05:09:14.367Z,421.00
2023-03-12T05:10:14.356Z,420.00
2023-03-12T05:11:14.371Z,421.00
2023-03-12T05:12:14.366Z,424.00
2023-03-12T05:13:14.361Z,424.00
2023-03-12T05:14:14.369Z,426.00
2023-03-12T05:15:14.374Z,425.00
2023-03-12T05:16:14.367Z,427.00
2023-03-12T05:17:14.359Z,427.00
2023-03-12T05:18:14.347Z,427.00
2023-03-12T05:19:14.344Z,425.00
2023-03-12T05:20:14.339Z,424.00
2023-03-12T05:21:14.361Z,425.00
2023-03-12T05:22:14.353Z,428.00
2023-03-12T05:23:14.326Z,426.00
2023-03-12T05:24:14.339Z,428.00
2023-03-12T05:25:14.336Z,427.00
2023-03-12T05:26:14.319Z,427.00
2023-03-12T05:27:14.320Z,432.00
2023-03-12T05:28:14.319Z,430.00
2023-03-12T05:29:14.308Z,428.00
2023-03-12T05:30:14.298Z,426.00
2023-03-12T05:31:14.394Z,426.00
2023-03-12T05:32:14.330Z,425.00
2023-03-12T05:33:14.290Z,427.00
2023-03-12T05:34:14.293Z,428.00
2023-03-12T05:35:14.296Z,428.00
2023-03-12T05:36:14.332Z,426.00
2023-03-12T05:37:14.331Z,426.00
2023-03-12T05:38:14.286Z,425.00
2023-03-12T05:39:14.291Z,427.00
2023-03-12T05:40:14.293Z,425.00
2023-03-12T05:41:14.294Z,426.00
2023-03-12T05:42:14.305Z,423.00
2023-03-12T05:43:14.282Z,423.00
2023-03-12T05:44:14.289Z,427.00
2023-03-12T05:45:14.267Z,426.00
2023-03-12T05:46:14.339Z,427.00
2023-03-12T05:47:14.273Z,427.00
2023-03-12T05:48:14.265Z,424.00
2023-03-12T05:49:14.259Z,428.00
2023-03-12T05:50:14.280Z,428.00
2023-03-12T05:51:14.249Z,429.00
2023-03-12T05:52:14.247Z,428.00
2023-03-12T05:53:14.239Z,428.00
2023-03-12T05:54:14.252Z,427.00
2023-03-12T05:55:14.285Z,427.00
2023-03-12T05:56:14.254Z,425.00
2023-03-12T05:57:14.242Z,424.00
2023-03-12T05:58:14.251Z,426.00
2023-03-12T05:59:14.242Z,425.00
2023-03-12T06:00:14.254Z,425.00
2023-03-12T06:01:14.255Z,425.00
2023-03-12T06:02:14.394Z,423.00
2023-03-12T06:03:14.282Z,425.00
2023-03-12T06:04:14.246Z,424.00
2023-03-12T06:05:14.245Z,425.00
2023-03-12T06:06:14.256Z,423.00
2023-03-12T06:07:14.260Z,424.00
2023-03-12T06:08:14.249Z,426.00
2023-03-12T06:09:14.247Z,427.00
2023-03-12T06:10:14.263Z,429.00
2023-03-12T06:11:14.262Z,428.00
2023-03-12T06:12:14.291Z,427.00
2023-03-12T06:13:14.270Z,427.00
2023-03-12T06:14:14.267Z,427.00
2023-03-12T06:15:14.272Z,426.00
2023-03-12T06:16:14.330Z,425.00
2023-03-12T06:17:14.285Z,428.00
2023-03-12T06:18:14.279Z,425.00
2023-03-12T06:19:14.333Z,425.00
2023-03-12T06:20:14.286Z,424.00
2023-03-12T06:21:14.276Z,423.00
2023-03-12T06:22:14.286Z,423.00
2023-03-12T06:23:14.302Z,422.00
2023-03-12T06:24:14.316Z,421.00
2023-03-12T06:25:14.281Z,420.00
2023-03-12T06:26:14.281Z,422.00
2023-03-12T06:27:14.282Z,420.00
2023-03-12T06:28:14.297Z,419.00
2023-03-12T06:29:14.289Z,417.00
2023-03-12T06:30:14.277Z,417.00
2023-03-12T06:31:14.311Z,416.00
2023-03-12T06:32:14.382Z,414.00
2023-03-12T06:33:14.267Z,413.00
2023-03-12T06:34:14.264Z,415.00
2023-03-12T06:35:14.263Z,418.00
2023-03-12T06:36:14.255Z,417.00
2023-03-12T06:37:14.259Z,416.00
2023-03-12T06:38:14.252Z,417.00
2023-03-12T06:39:14.247Z,416.00
2023-03-12T06:40:14.236Z,413.00
2023-03-12T06:41:14.236Z,411.00
2023-03-12T06:42:14.256Z,411.00
2023-03-12T06:43:14.249Z,412.00
2023-03-12T06:44:14.240Z,411.00
2023-03-12T06:45:14.240Z,412.00
2023-03-12T06:46:14.245Z,414.00
2023-03-12T06:47:17.125Z,416.00
2023-03-12T06:48:14.250Z,416.00
2023-03-12T06:49:14.251Z,417.00
2023-03-12T06:50:14.258Z,417.00
2023-03-12T06:51:14.237Z,417.00
2023-03-12T06:52:14.254Z,417.00
2023-03-12T06:53:14.243Z,422.00
2023-03-12T06:54:14.252Z,419.00
2023-03-12T06:55:14.310Z,416.00
2023-03-12T06:56:14.257Z,415.00
2023-03-12T06:57:14.246Z,414.00
2023-03-12T06:58:14.249Z,418.00
2023-03-12T06:59:14.226Z,417.00
2023-03-12T07:00:14.234Z,415.00
2023-03-12T07:01:14.235Z,414.00
2023-03-12T07:02:14.273Z,412.00
2023-03-12T07:03:14.244Z,413.00
2023-03-12T07:04:14.231Z,414.00
2023-03-12T07:05:14.257Z,417.00
2023-03-12T07:06:14.222Z,418.00
2023-03-12T07:07:14.216Z,420.00
2023-03-12T07:08:14.216Z,423.00
2023-03-12T07:09:14.212Z,420.00
2023-03-12T07:10:14.221Z,419.00
2023-03-12T07:11:14.218Z,421.00
2023-03-12T07:12:14.218Z,421.00
2023-03-12T07:13:14.211Z,426.00
2023-03-12T07:14:14.212Z,425.00
2023-03-12T07:15:14.221Z,424.00
2023-03-12T07:16:14.329Z,421.00
2023-03-12T07:17:14.212Z,418.00
2023-03-12T07:18:14.248Z,420.00
2023-03-12T07:19:14.222Z,420.00
2023-03-12T07:20:14.220Z,423.00
2023-03-12T07:21:14.225Z,421.00
2023-03-12T07:22:14.237Z,418.00
2023-03-12T07:23:14.270Z,419.00
2023-03-12T07:24:14.228Z,423.00
2023-03-12T07:25:14.223Z,422.00
2023-03-12T07:26:14.234Z,423.00
2023-03-12T07:27:14.232Z,424.00
2023-03-12T07:28:14.236Z,424.00
2023-03-12T07:29:14.253Z,424.00
2023-03-12T07:30:14.251Z,423.00
2023-03-12T07:31:14.300Z,418.00
2023-03-12T07:32:14.303Z,418.00
2023-03-12T07:33:14.368Z,417.00
2023-03-12T07:34:14.348Z,416.00
2023-03-12T07:35:14.248Z,417.00
2023-03-12T07:36:14.384Z,417.00
2023-03-12T07:37:14.236Z,419.00
2023-03-12T07:38:14.325Z,418.00
2023-03-12T07:39:14.246Z,418.00
2023-03-12T07:40:14.259Z,420.00
2023-03-12T07:41:14.292Z,419.00
2023-03-12T07:42:14.275Z,419.00
2023-03-12T07:43:14.240Z,422.00
2023-03-12T07:44:14.244Z,419.00
2023-03-12T07:45:14.255Z,418.00
2023-03-12T07:46:14.338Z,419.00
2023-03-12T07:47:23.673Z,420.00
2023-03-12T07:48:15.288Z,421.00
2023-03-12T07:49:14.242Z,421.00
2023-03-12T07:50:14.295Z,420.00
2023-03-12T07:51:14.259Z,423.00
2023-03-12T07:52:14.312Z,424.00
2023-03-12T07:53:14.250Z,422.00
2023-03-12T07:54:14.268Z,423.00
2023-03-12T07:55:14.451Z,421.00
2023-03-12T07:56:14.366Z,425.00
2023-03-12T07:57:14.331Z,423.00
2023-03-12T07:58:14.358Z,424.00
2023-03-12T07:59:14.356Z,424.00
2023-03-12T08:00:14.258Z,425.00
2023-03-12T08:01:14.270Z,423.00
2023-03-12T08:02:14.372Z,422.00
2023-03-12T08:03:14.403Z,420.00
2023-03-12T08:04:14.327Z,422.00
2023-03-12T08:05:14.213Z,423.00
2023-03-12T08:06:14.243Z,422.00
2023-03-12T08:07:14.331Z,424.00
2023-03-12T08:08:14.234Z,423.00
2023-03-12T08:09:14.195Z,424.00
2023-03-12T08:10:14.238Z,422.00
2023-03-12T08:11:14.179Z,421.00
2023-03-12T08:12:14.244Z,421.00
2023-03-12T08:13:14.263Z,423.00
2023-03-12T08:14:14.226Z,425.00
2023-03-12T08:15:14.176Z,424.00
2023-03-12T08:16:14.215Z,425.00
2023-03-12T08:17:14.163Z,423.00
2023-03-12T08:18:14.168Z,420.00
2023-03-12T08:19:14.162Z,417.00
2023-03-12T08:20:14.174Z,416.00
2023-03-12T08:21:16.366Z,417.00
2023-03-12T08:22:14.167Z,419.00
2023-03-12T08:23:14.175Z,418.00
2023-03-12T08:24:14.186Z,418.00
2023-03-12T08:25:14.171Z,417.00
2023-03-12T08:26:14.167Z,419.00
2023-03-12T08:27:14.187Z,421.00
2023-03-12T08:28:14.177Z,423.00
2023-03-12T08:29:14.202Z,423.00
2023-03-12T08:30:14.191Z,426.00
2023-03-12T08:31:14.251Z,424.00
2023-03-12T08:32:14.347Z,425.00
2023-03-12T08:33:14.209Z,423.00
2023-03-12T08:34:14.207Z,419.00
2023-03-12T08:35:14.224Z,425.00
2023-03-12T08:36:14.219Z,419.00
2023-03-12T08:37:14.205Z,417.00
2023-03-12T08:38:14.213Z,420.00
2023-03-12T08:39:14.223Z,417.00
2023-03-12T08:40:14.219Z,417.00
2023-03-12T08:41:14.216Z,414.00
2023-03-12T08:42:14.227Z,416.00
2023-03-12T08:43:14.227Z,417.00
2023-03-12T08:44:14.224Z,417.00
2023-03-12T08:45:14.282Z,418.00
2023-03-12T08:46:14.284Z,417.00
2023-03-12T08:47:14.218Z,418.00
2023-03-12T08:48:14.171Z,419.00
2023-03-12T08:49:14.152Z,420.00
2023-03-12T08:50:14.152Z,421.00
2023-03-12T08:51:16.764Z,424.00
2023-03-12T08:52:14.100Z,422.00
2023-03-12T08:53:14.086Z,421.00
2023-03-12T08:54:14.082Z,422.00
2023-03-12T08:55:14.051Z,423.00
2023-03-12T08:56:14.049Z,425.00
2023-03-12T08:57:14.000Z,423.00
2023-03-12T08:58:13.974Z,420.00
2023-03-12T08:59:13.946Z,420.00
2023-03-12T09:00:13.942Z,417.00
2023-03-12T09:01:13.909Z,415.00
2023-03-12T09:02:13.894Z,415.00
2023-03-12T09:03:13.987Z,417.00
2023-03-12T09:04:13.854Z,419.00
2023-03-12T09:05:13.814Z,416.00
2023-03-12T09:06:13.804Z,414.00
2023-03-12T09:07:13.787Z,415.00
2023-03-12T09:08:13.750Z,419.00
2023-03-12T09:09:13.726Z,419.00
2023-03-12T09:10:13.705Z,416.00
2023-03-12T09:11:13.682Z,414.00
2023-03-12T09:12:13.771Z,416.00
2023-03-12T09:13:13.646Z,415.00
2023-03-12T09:15:01.528Z,414.00
2023-03-12T09:15:14.615Z,414.00
2023-03-12T09:16:13.634Z,416.00
2023-03-12T09:17:13.548Z,417.00
2023-03-12T09:18:13.544Z,421.00
2023-03-12T09:19:13.514Z,421.00
2023-03-12T09:20:13.499Z,419.00
2023-03-12T09:21:13.456Z,419.00
2023-03-12T09:22:13.443Z,421.00
2023-03-12T09:23:13.413Z,423.00
2023-03-12T09:24:13.389Z,422.00
2023-03-12T09:25:13.363Z,421.00
2023-03-12T09:26:13.330Z,421.00
2023-03-12T09:27:13.303Z,419.00
2023-03-12T09:28:16.135Z,416.00
2023-03-12T09:29:13.273Z,415.00
2023-03-12T09:30:13.246Z,413.00
2023-03-12T09:31:13.329Z,413.00
2023-03-12T09:32:13.189Z,414.00
2023-03-12T09:33:13.172Z,415.00
2023-03-12T09:34:13.158Z,415.00
2023-03-12T09:35:13.142Z,415.00
2023-03-12T09:36:13.123Z,416.00
2023-03-12T09:37:13.094Z,417.00
2023-03-12T09:38:13.092Z,416.00
2023-03-12T09:39:13.060Z,417.00
2023-03-12T09:40:13.039Z,416.00
2023-03-12T09:41:13.008Z,417.00
2023-03-12T09:42:12.984Z,415.00
2023-03-12T09:43:12.966Z,416.00
2023-03-12T09:44:12.939Z,418.00
2023-03-12T09:45:12.933Z,420.00
2023-03-12T09:46:12.944Z,421.00
2023-03-12T09:47:12.878Z,422.00
2023-03-12T09:48:12.853Z,420.00
2023-03-12T09:49:12.867Z,420.00
2023-03-12T09:50:12.831Z,417.00
2023-03-12T09:51:12.794Z,419.00
2023-03-12T09:52:12.765Z,418.00
2023-03-12T09:53:12.788Z,419.00
2023-03-12T09:54:12.735Z,418.00
2023-03-12T09:55:12.727Z,416.00
2023-03-12T09:56:12.688Z,416.00
2023-03-12T09:57:12.670Z,415.00
2023-03-12T09:58:12.646Z,414.00
2023-03-12T09:59:12.640Z,417.00
2023-03-12T10:00:12.689Z,416.00
2023-03-12T10:01:12.598Z,416.00
2023-03-12T10:02:12.571Z,415.00
2023-03-12T10:03:12.598Z,416.00
2023-03-12T10:04:12.579Z,414.00
2023-03-12T10:05:12.551Z,414.00
2023-03-12T10:06:12.641Z,417.00
2023-03-12T10:07:12.508Z,416.00
2023-03-12T10:08:24.167Z,416.00
2023-03-12T10:09:13.444Z,418.00
2023-03-12T10:10:12.429Z,418.00
2023-03-12T10:11:12.411Z,418.00
2023-03-12T10:12:12.384Z,417.00
2023-03-12T10:13:12.371Z,418.00
2023-03-12T10:14:16.123Z,420.00
2023-03-12T10:15:13.324Z,419.00
2023-03-12T10:16:12.341Z,417.00
2023-03-12T10:17:12.280Z,415.00
2023-03-12T10:18:12.305Z,414.00
2023-03-12T10:19:12.256Z,413.00
2023-03-12T10:20:12.225Z,412.00
2023-03-12T10:21:12.205Z,412.00
2023-03-12T10:22:12.199Z,408.00
2023-03-12T10:23:12.154Z,409.00
2023-03-12T10:24:12.124Z,411.00
2023-03-12T10:25:12.117Z,413.00
2023-03-12T10:26:12.103Z,413.00
2023-03-12T10:27:12.073Z,413.00
2023-03-12T10:28:12.050Z,412.00
2023-03-12T10:29:12.014Z,412.00
2023-03-12T10:30:12.000Z,412.00
2023-03-12T10:31:11.986Z,412.00
2023-03-12T10:32:11.951Z,413.00
2023-03-12T10:33:11.925Z,413.00
2023-03-12T10:34:11.915Z,412.00
2023-03-12T10:35:11.885Z,411.00
2023-03-12T10:36:11.861Z,412.00
2023-03-12T10:37:11.838Z,411.00
2023-03-12T10:38:11.805Z,409.00
2023-03-12T10:39:11.780Z,410.00
2023-03-12T10:40:11.762Z,410.00
2023-03-12T10:41:11.747Z,411.00
2023-03-12T10:42:11.717Z,414.00
2023-03-12T10:43:11.694Z,413.00
2023-03-12T11:37:10.482Z,423.00
2023-03-12T11:38:10.442Z,422.00
2023-03-12T11:39:10.420Z,422.00
2023-03-12T11:40:10.400Z,422.00
2023-03-12T11:41:10.375Z,423.00
2023-03-12T11:42:10.368Z,423.00
2023-03-12T11:43:10.326Z,423.00
2023-03-12T11:44:10.298Z,422.00
2023-03-12T11:45:10.270Z,421.00
2023-03-12T11:46:10.293Z,421.00
2023-03-12T11:47:10.276Z,421.00
2023-03-12T11:48:10.221Z,419.00
2023-03-12T11:49:10.182Z,419.00
2023-03-12T11:50:10.145Z,417.00
2023-03-12T11:51:10.123Z,416.00
2023-03-12T11:52:10.096Z,414.00
2023-03-12T11:53:10.091Z,413.00
2023-03-12T11:54:10.044Z,414.00
2023-03-12T11:55:10.018Z,414.00
2023-03-12T11:56:09.996Z,413.00
2023-03-12T11:57:09.961Z,414.00
2023-03-12T11:58:09.926Z,416.00
2023-03-12T11:59:09.905Z,415.00
2023-03-12T12:00:09.872Z,413.00
2023-03-12T12:01:09.861Z,413.00
2023-03-12T12:02:09.862Z,414.00
2023-03-12T12:03:09.818Z,413.00
2023-03-12T12:04:09.788Z,411.00
2023-03-12T12:05:09.743Z,408.00
2023-03-12T12:06:09.715Z,408.00
2023-03-12T12:07:09.697Z,406.00
2023-03-12T12:08:09.674Z,407.00
2023-03-12T12:09:09.655Z,408.00
2023-03-12T12:10:09.616Z,410.00
2023-03-12T12:11:09.598Z,410.00
2023-03-12T12:12:09.566Z,411.00
2023-03-12T12:13:09.542Z,410.00
2023-03-12T12:14:09.537Z,408.00
2023-03-12T12:15:09.490Z,407.00
2023-03-12T12:16:09.472Z,407.00
2023-03-12T12:17:09.462Z,407.00
2023-03-12T12:18:09.405Z,407.00
2023-03-12T12:19:09.376Z,408.00
2023-03-12T12:20:09.352Z,410.00
2023-03-12T12:21:09.312Z,410.00
2023-03-12T12:22:09.355Z,410.00
2023-03-12T12:23:09.270Z,410.00
2023-03-12T12:24:09.237Z,412.00
2023-03-12T12:25:09.218Z,412.00
2023-03-12T12:26:09.193Z,412.00
2023-03-12T12:27:09.156Z,414.00
2023-03-12T12:28:09.128Z,413.00
2023-03-12T12:29:09.122Z,412.00
2023-03-12T12:30:09.086Z,414.00
2023-03-12T12:31:09.054Z,415.00
2023-03-12T12:32:09.070Z,415.00
2023-03-12T12:33:09.010Z,414.00
2023-03-12T12:34:08.983Z,412.00
2023-03-12T12:35:08.964Z,415.00
2023-03-12T12:36:08.965Z,416.00
2023-03-12T12:37:08.905Z,419.00
2023-03-12T12:38:08.894Z,421.00
2023-03-12T12:39:08.845Z,422.00
2023-03-12T12:40:08.920Z,420.00
2023-03-12T12:41:08.788Z,419.00
2023-03-12T12:42:08.797Z,419.00
2023-03-12T12:43:08.721Z,420.00
2023-03-12T12:44:08.716Z,419.00
2023-03-12T12:45:08.670Z,419.00
2023-03-12T12:46:08.722Z,421.00
2023-03-12T12:47:08.621Z,420.00
2023-03-12T12:48:08.607Z,420.00
2023-03-12T12:49:08.567Z,423.00
2023-03-12T12:50:08.543Z,425.00
2023-03-12T12:51:09.100Z,423.00
2023-03-12T12:52:08.501Z,422.00
2023-03-12T12:53:08.476Z,422.00
2023-03-12T12:54:08.444Z,421.00
2023-03-12T12:55:08.425Z,420.00
2023-03-12T12:56:08.388Z,420.00
2023-03-12T12:57:08.385Z,419.00
2023-03-12T12:58:08.338Z,419.00
2023-03-12T12:59:08.313Z,420.00
2023-03-12T13:00:08.321Z,420.00
2023-03-12T13:01:08.293Z,420.00
2023-03-12T13:02:08.241Z,419.00
2023-03-12T13:03:08.218Z,416.00
2023-03-12T13:04:08.263Z,414.00
2023-03-12T13:05:08.168Z,413.00
2023-03-12T13:06:08.133Z,413.00
2023-03-12T13:07:08.120Z,414.00
2023-03-12T13:08:08.089Z,414.00
2023-03-12T13:09:08.064Z,416.00
2023-03-12T13:10:08.026Z,415.00
2023-03-12T13:11:18.294Z,415.00
2023-03-12T13:12:08.968Z,415.00
2023-03-12T13:13:07.971Z,413.00
2023-03-12T13:14:07.932Z,412.00
2023-03-12T13:15:07.899Z,411.00
2023-03-12T13:16:07.901Z,414.00
2023-03-12T13:17:07.853Z,413.00
2023-03-12T13:18:07.833Z,411.00
2023-03-12T13:19:07.797Z,412.00
2023-03-12T13:20:07.778Z,413.00
2023-03-12T13:21:07.744Z,413.00
2023-03-12T13:22:07.710Z,413.00
2023-03-12T13:23:07.706Z,415.00
2023-03-12T13:24:07.657Z,415.00
2023-03-12T13:25:07.644Z,412.00
2023-03-12T13:26:07.609Z,413.00
2023-03-12T13:27:07.589Z,413.00
2023-03-12T13:28:07.562Z,415.00
2023-03-12T13:29:12.738Z,415.00
2023-03-12T13:30:08.494Z,416.00
2023-03-12T13:31:07.491Z,417.00
2023-03-12T13:32:07.549Z,417.00
2023-03-12T13:33:07.417Z,418.00
2023-03-12T13:34:07.374Z,417.00
2023-03-12T13:35:07.406Z,418.00
2023-03-12T13:36:07.331Z,418.00
2023-03-12T13:37:07.385Z,417.00
2023-03-12T13:38:07.271Z,416.00
2023-03-12T13:39:07.225Z,413.00
2023-03-12T13:40:07.182Z,413.00
2023-03-12T13:41:07.151Z,412.00
2023-03-12T13:42:07.121Z,412.00
2023-03-12T13:43:07.083Z,409.00
2023-03-12T13:44:07.047Z,410.00
2023-03-12T13:45:07.033Z,410.00
2023-03-12T13:46:07.152Z,411.00
2023-03-12T13:47:06.947Z,411.00
2023-03-12T13:48:06.920Z,409.00
2023-03-12T13:49:06.909Z,408.00
2023-03-12T13:50:06.871Z,410.00
2023-03-12T13:51:06.837Z,410.00
2023-03-12T13:52:06.814Z,413.00
2023-03-12T13:53:06.801Z,412.00
2023-03-12T13:54:06.759Z,414.00
2023-03-12T13:55:06.727Z,413.00
2023-03-12T13:56:06.699Z,413.00
2023-03-12T13:57:06.670Z,416.00
2023-03-12T13:58:06.630Z,413.00
2023-03-12T13:59:06.613Z,413.00
2023-03-12T14:00:06.574Z,412.00
2023-03-12T14:01:06.592Z,414.00
2023-03-12T14:02:06.500Z,415.00
2023-03-12T14:03:06.465Z,416.00
2023-03-12T14:04:06.459Z,418.00
2023-03-12T14:05:06.520Z,417.00
2023-03-12T14:06:06.381Z,418.00
2023-03-12T14:07:06.332Z,417.00
2023-03-12T14:08:06.293Z,418.00
2023-03-12T14:09:06.255Z,417.00
2023-03-12T14:10:08.818Z,417.00
2023-03-12T14:11:06.208Z,415.00
2023-03-12T14:12:06.260Z,418.00
2023-03-12T14:13:06.146Z,417.00
2023-03-12T14:14:06.123Z,416.00
2023-03-12T14:15:06.091Z,417.00
2023-03-12T14:16:06.097Z,415.00
2023-03-12T14:17:06.028Z,416.00
2023-03-12T14:18:06.032Z,415.00
2023-03-12T14:19:05.990Z,413.00
2023-03-12T14:20:05.983Z,414.00
2023-03-12T14:21:05.923Z,416.00
2023-03-12T14:22:05.884Z,420.00
2023-03-12T14:23:05.827Z,420.00
2023-03-12T14:24:05.808Z,422.00
2023-03-12T14:25:05.768Z,420.00
2023-03-12T14:26:05.736Z,421.00
2023-03-12T14:27:05.716Z,421.00
2023-03-12T14:28:05.674Z,419.00
2023-03-12T14:29:05.643Z,421.00
2023-03-12T14:30:05.606Z,419.00
2023-03-12T14:31:05.716Z,419.00
2023-03-12T14:32:05.550Z,419.00
2023-03-12T14:33:05.600Z,419.00
2023-03-12T14:34:05.477Z,420.00
2023-03-12T14:35:05.444Z,419.00
2023-03-12T14:36:05.451Z,417.00
2023-03-12T14:37:05.392Z,416.00
2023-03-12T14:38:05.355Z,415.00
2023-03-12T14:39:05.343Z,414.00
2023-03-12T14:40:05.284Z,413.00
2023-03-12T14:41:05.250Z,415.00
2023-03-12T14:42:05.219Z,413.00
2023-03-12T14:43:05.178Z,414.00
2023-03-12T14:44:05.163Z,414.00
2023-03-12T14:45:05.116Z,413.00
2023-03-12T14:46:05.165Z,413.00
2023-03-12T14:47:05.046Z,414.00
2023-03-12T14:48:05.016Z,415.00
2023-03-12T14:49:05.053Z,416.00
2023-03-12T14:50:04.957Z,417.00
2023-03-12T14:51:04.964Z,416.00
2023-03-12T14:52:04.875Z,416.00
2023-03-12T14:53:04.833Z,413.00
2023-03-12T14:54:04.834Z,415.00
2023-03-12T14:55:04.780Z,415.00
2023-03-12T14:56:04.746Z,416.00
2023-03-12T14:57:04.702Z,415.00